createdAt,value
2022-12-06T00:01:10.786Z,1.40
2022-12-06T00:03:39.252Z,1.40
2022-12-06T00:06:09.123Z,1.40
2022-12-06T00:08:39.453Z,1.40
2022-12-06T00:11:10.097Z,1.40
2022-12-06T00:13:39.028Z,1.40
2022-12-06T00:16:08.984Z,1.40
2022-12-06T00:18:38.667Z,1.40
2022-12-06T00:21:08.439Z,1.40
2022-12-06T00:23:39.030Z,1.40
2022-12-06T00:26:07.981Z,1.40
2022-12-06T00:28:37.057Z,1.40
2022-12-06T00:31:07.677Z,1.40
2022-12-06T00:33:36.590Z,1.40
2022-12-06T00:36:06.734Z,1.40
2022-12-06T00:38:36.399Z,1.40
2022-12-06T00:41:07.645Z,1.40
2022-12-06T00:43:36.598Z,1.40
2022-12-06T00:46:06.672Z,1.40
2022-12-06T00:48:34.643Z,1.50
2022-12-06T00:51:02.567Z,1.40
2022-12-06T00:53:30.592Z,1.40
2022-12-06T00:55:58.468Z,1.40
2022-12-06T00:58:27.678Z,1.40
2022-12-06T01:00:55.722Z,1.40
2022-12-06T01:03:24.004Z,1.50
2022-12-06T01:05:52.178Z,1.40
2022-12-06T01:08:20.449Z,1.40
2022-12-06T01:10:53.416Z,1.40
2022-12-06T01:13:21.286Z,1.40
2022-12-06T01:15:50.634Z,1.40
2022-12-06T01:18:18.376Z,1.40
2022-12-06T01:20:46.066Z,1.40
2022-12-06T01:23:14.054Z,1.40
2022-12-06T01:25:50.284Z,1.50
2022-12-06T01:28:18.027Z,1.40
2022-12-06T01:30:46.046Z,1.40
2022-12-06T01:33:15.197Z,1.40
2022-12-06T01:35:43.281Z,1.40
2022-12-06T01:38:12.364Z,1.40
2022-12-06T01:40:40.784Z,1.40
2022-12-06T01:43:30.894Z,1.40
2022-12-06T01:46:01.597Z,1.40
2022-12-06T01:48:30.755Z,1.40
2022-12-06T01:50:59.933Z,1.50
2022-12-06T01:53:28.364Z,1.50
2022-12-06T01:55:56.278Z,1.40
2022-12-06T01:58:29.221Z,1.50
2022-12-06T02:00:57.044Z,1.50
2022-12-06T02:03:28.281Z,1.50
2022-12-06T02:05:58.280Z,1.50
2022-12-06T02:08:27.319Z,1.60
2022-12-06T02:10:55.588Z,1.50
2022-12-06T02:13:24.329Z,1.50
2022-12-06T02:15:59.532Z,1.50
2022-12-06T02:18:35.020Z,1.50
2022-12-06T02:21:14.797Z,1.50
2022-12-06T02:24:08.051Z,1.50
2022-12-06T02:26:40.301Z,1.50
2022-12-06T02:29:32.213Z,1.50
2022-12-06T02:32:07.814Z,1.50
2022-12-06T02:34:42.869Z,1.50
2022-12-06T02:37:14.483Z,1.50
2022-12-06T02:39:47.024Z,1.50
2022-12-06T02:42:18.092Z,1.50
2022-12-06T02:44:49.308Z,1.50
2022-12-06T02:47:21.602Z,1.50
2022-12-06T02:49:50.589Z,1.50
2022-12-06T02:52:20.842Z,1.50
2022-12-06T02:54:50.344Z,1.50
2022-12-06T02:57:20.295Z,1.50
2022-12-06T02:59:55.518Z,1.60
2022-12-06T03:02:25.220Z,1.60
2022-12-06T03:05:08.584Z,1.60
2022-12-06T03:07:41.450Z,1.60
2022-12-06T03:10:20.288Z,1.60
2022-12-06T03:12:55.666Z,1.60
2022-12-06T03:15:34.740Z,1.60
2022-12-06T03:18:10.274Z,1.60
2022-12-06T03:20:43.875Z,1.60
2022-12-06T03:23:16.291Z,1.60
2022-12-06T03:25:47.762Z,1.50
2022-12-06T03:28:18.303Z,1.60
2022-12-06T03:30:51.125Z,1.60
2022-12-06T03:33:23.894Z,1.60
2022-12-06T03:35:55.032Z,1.60
2022-12-06T03:38:27.305Z,1.60
2022-12-06T03:40:58.174Z,1.60
2022-12-06T03:43:26.091Z,1.60
2022-12-06T03:46:00.451Z,1.60
2022-12-06T03:48:33.900Z,1.60
2022-12-06T03:51:05.290Z,1.60
2022-12-06T03:53:33.663Z,1.60
2022-12-06T03:56:01.628Z,1.60
2022-12-06T03:58:29.544Z,1.70
2022-12-06T04:01:04.588Z,1.70
2022-12-06T04:03:33.762Z,1.70
2022-12-06T04:06:03.065Z,1.70
2022-12-06T04:08:30.987Z,1.70
2022-12-06T04:11:00.129Z,1.70
2022-12-06T04:13:28.678Z,1.60
2022-12-06T04:15:57.387Z,1.70
2022-12-06T04:18:24.687Z,1.70
2022-12-06T04:21:17.497Z,1.70
2022-12-06T04:23:46.875Z,1.70
2022-12-06T04:26:16.709Z,1.70
2022-12-06T04:29:01.894Z,1.70
2022-12-06T04:31:47.387Z,1.70
2022-12-06T04:34:33.212Z,1.70
2022-12-06T04:37:20.251Z,1.70
2022-12-06T04:39:47.981Z,1.70
2022-12-06T04:42:33.447Z,1.70
2022-12-06T04:45:01.148Z,1.70
2022-12-06T04:47:29.117Z,1.70
2022-12-06T04:49:57.094Z,1.70
2022-12-06T04:52:29.043Z,1.70
2022-12-06T04:54:59.128Z,1.70
2022-12-06T04:57:26.835Z,1.80
2022-12-06T04:59:54.545Z,1.80
2022-12-06T05:02:22.288Z,1.80
2022-12-06T05:04:49.993Z,1.80
2022-12-06T05:07:17.708Z,1.80
2022-12-06T05:09:46.772Z,1.80
2022-12-06T05:12:14.487Z,1.80
2022-12-06T05:14:42.205Z,1.80
2022-12-06T05:17:09.916Z,1.80
2022-12-06T05:19:37.626Z,1.80
2022-12-06T05:22:05.328Z,1.80
2022-12-06T05:24:33.295Z,1.80
2022-12-06T05:27:02.720Z,1.80
2022-12-06T05:29:30.620Z,1.80
2022-12-06T05:31:58.391Z,1.80
2022-12-06T05:34:26.296Z,1.80
2022-12-06T05:36:53.987Z,1.80
2022-12-06T05:39:21.753Z,1.80
2022-12-06T05:41:49.469Z,1.80
2022-12-06T05:44:18.728Z,1.80
2022-12-06T05:46:46.520Z,1.80
2022-12-06T05:49:14.224Z,1.80
2022-12-06T05:51:41.954Z,1.80
2022-12-06T05:54:09.624Z,1.80
2022-12-06T05:56:37.313Z,1.90
2022-12-06T05:59:05.058Z,1.90
2022-12-06T06:01:34.108Z,1.90
2022-12-06T06:04:01.861Z,1.90
2022-12-06T06:06:29.560Z,1.90
2022-12-06T06:08:57.249Z,1.90
2022-12-06T06:11:24.977Z,1.80
2022-12-06T06:13:54.326Z,1.90
2022-12-06T06:16:22.127Z,1.90
2022-12-06T06:18:51.253Z,1.90
2022-12-06T06:21:18.927Z,1.90
2022-12-06T06:23:46.616Z,1.90
2022-12-06T06:26:14.332Z,1.90
2022-12-06T06:28:42.000Z,1.90
2022-12-06T06:31:09.990Z,1.90
2022-12-06T06:33:37.716Z,1.90
2022-12-06T06:36:07.626Z,1.90
2022-12-06T06:38:35.351Z,1.90
2022-12-06T06:41:03.435Z,1.90
2022-12-06T06:43:31.217Z,1.90
2022-12-06T06:46:00.929Z,1.90
2022-12-06T06:48:30.847Z,2.00
2022-12-06T06:51:03.389Z,2.00
2022-12-06T06:53:32.508Z,2.00
2022-12-06T06:56:00.536Z,2.00
2022-12-06T06:58:28.295Z,2.00
2022-12-06T07:00:56.998Z,2.00
2022-12-06T07:03:25.929Z,2.00
2022-12-06T07:05:54.421Z,2.00
2022-12-06T07:08:22.636Z,2.00
2022-12-06T07:10:51.737Z,2.00
2022-12-06T07:13:20.546Z,2.00
2022-12-06T07:15:48.394Z,2.00
2022-12-06T07:18:17.019Z,2.00
2022-12-06T07:20:44.921Z,2.10
2022-12-06T07:23:12.793Z,2.10
2022-12-06T07:25:40.531Z,2.10
2022-12-06T07:28:09.634Z,2.10
2022-12-06T07:30:37.437Z,2.10
2022-12-06T07:33:05.218Z,2.10
2022-12-06T07:36:03.672Z,2.10
2022-12-06T07:38:21.236Z,2.10
2022-12-06T07:41:04.046Z,2.10
2022-12-06T07:43:50.809Z,2.10
2022-12-06T07:46:18.599Z,2.10
2022-12-06T07:48:46.361Z,2.10
2022-12-06T07:51:14.123Z,2.10
2022-12-06T07:53:41.800Z,2.10
2022-12-06T07:56:10.167Z,2.10
2022-12-06T07:58:39.239Z,2.10
2022-12-06T08:01:07.170Z,2.10
2022-12-06T08:03:34.992Z,2.20
2022-12-06T08:06:02.729Z,2.20
2022-12-06T08:08:31.593Z,2.20
2022-12-06T08:11:00.080Z,2.20
2022-12-06T08:13:27.952Z,2.20
2022-12-06T08:15:57.694Z,2.20
2022-12-06T08:18:26.061Z,2.20
2022-12-06T08:20:53.808Z,2.20
2022-12-06T08:23:21.536Z,2.20
2022-12-06T08:25:57.607Z,2.20
2022-12-06T08:28:25.615Z,2.30
2022-12-06T08:30:57.008Z,2.30
2022-12-06T08:33:29.189Z,2.30
2022-12-06T08:35:56.873Z,2.30
2022-12-06T08:38:24.572Z,2.30
2022-12-06T08:40:52.425Z,2.30
2022-12-06T08:43:20.346Z,2.40
2022-12-06T08:45:51.988Z,2.40
2022-12-06T08:48:20.044Z,2.40
2022-12-06T08:50:49.094Z,2.40
2022-12-06T08:53:16.796Z,2.40
2022-12-06T08:56:00.420Z,2.40
2022-12-06T08:58:30.443Z,2.40
2022-12-06T09:00:58.229Z,2.50
2022-12-06T09:03:26.681Z,2.50
2022-12-06T09:05:55.770Z,2.50
2022-12-06T09:08:23.543Z,2.50
2022-12-06T09:10:51.321Z,2.50
2022-12-06T09:13:19.034Z,2.60
2022-12-06T09:15:46.801Z,2.60
2022-12-06T09:18:14.584Z,2.60
2022-12-06T09:20:42.557Z,2.60
2022-12-06T09:23:11.615Z,2.60
2022-12-06T09:25:41.443Z,2.60
2022-12-06T09:28:09.666Z,2.60
2022-12-06T09:30:37.405Z,2.70
2022-12-06T09:33:05.211Z,2.70
2022-12-06T09:35:33.641Z,2.70
2022-12-06T09:38:03.528Z,2.70
2022-12-06T09:40:41.306Z,2.70
2022-12-06T09:43:28.480Z,2.70
2022-12-06T09:46:09.725Z,2.70
2022-12-06T09:49:07.531Z,2.70
2022-12-06T09:51:54.063Z,2.70
2022-12-06T09:54:35.968Z,2.70
2022-12-06T09:57:14.082Z,2.80
2022-12-06T09:59:49.871Z,2.80
2022-12-06T10:02:35.686Z,2.80
2022-12-06T10:05:17.935Z,2.70
2022-12-06T10:07:54.244Z,2.80
2022-12-06T10:10:28.819Z,2.80
2022-12-06T10:13:05.079Z,2.90
2022-12-06T10:15:47.484Z,2.90
2022-12-06T10:18:36.369Z,2.90
2022-12-06T10:21:13.292Z,2.90
2022-12-06T10:24:01.462Z,2.90
2022-12-06T10:26:37.321Z,2.90
2022-12-06T10:29:18.134Z,3.00
2022-12-06T10:31:55.815Z,3.00
2022-12-06T10:34:32.212Z,3.00
2022-12-06T10:37:10.011Z,3.00
2022-12-06T10:39:51.929Z,3.00
2022-12-06T10:42:30.591Z,3.00
2022-12-06T10:45:27.118Z,3.00
2022-12-06T10:47:59.273Z,3.00
2022-12-06T10:50:31.556Z,3.00
2022-12-06T10:53:02.921Z,3.10
2022-12-06T10:55:37.174Z,3.10
2022-12-06T10:58:11.895Z,3.20
2022-12-06T11:00:48.076Z,3.20
2022-12-06T11:03:21.375Z,3.20
2022-12-06T11:05:54.405Z,3.20
2022-12-06T11:08:27.509Z,3.20
2022-12-06T11:10:56.943Z,3.20
2022-12-06T11:13:33.286Z,3.20
2022-12-06T11:16:06.945Z,3.20
2022-12-06T11:18:35.304Z,3.30
2022-12-06T11:21:07.268Z,3.30
2022-12-06T11:23:41.816Z,3.30
2022-12-06T11:26:22.805Z,3.30
2022-12-06T11:29:00.069Z,3.40
2022-12-06T11:31:33.681Z,3.40
2022-12-06T11:34:03.367Z,3.50
2022-12-06T11:36:32.135Z,3.50
2022-12-06T11:39:00.691Z,3.50
2022-12-06T11:41:30.902Z,3.50
2022-12-06T11:43:59.486Z,3.50
2022-12-06T11:46:29.769Z,3.50
2022-12-06T11:49:04.729Z,3.50
2022-12-06T11:51:32.433Z,3.60
2022-12-06T11:54:04.548Z,3.60
2022-12-06T11:56:35.100Z,3.60
2022-12-06T11:59:20.455Z,3.60
2022-12-06T12:01:51.915Z,3.60
2022-12-06T12:04:32.648Z,3.60
2022-12-06T12:07:03.688Z,3.60
2022-12-06T12:09:34.449Z,3.60
2022-12-06T12:12:05.888Z,3.60
2022-12-06T12:14:40.090Z,3.60
2022-12-06T12:17:18.871Z,3.60
2022-12-06T12:19:51.489Z,3.70
2022-12-06T12:22:28.910Z,3.70
2022-12-06T12:25:29.236Z,3.70
2022-12-06T12:27:48.984Z,3.70
2022-12-06T12:30:26.555Z,3.80
2022-12-06T12:33:24.541Z,3.80
2022-12-06T12:35:55.810Z,3.80
2022-12-06T12:38:28.130Z,3.80
2022-12-06T12:40:59.276Z,3.90
2022-12-06T12:43:30.696Z,3.90
2022-12-06T12:46:14.172Z,3.90
2022-12-06T12:48:45.614Z,3.90
2022-12-06T12:51:32.603Z,3.90
2022-12-06T12:54:03.145Z,3.90
2022-12-06T12:56:37.300Z,3.90
2022-12-06T12:59:13.233Z,3.90
2022-12-06T13:01:47.149Z,3.90
2022-12-06T13:04:37.239Z,4.00
2022-12-06T13:07:08.220Z,4.00
2022-12-06T13:09:45.699Z,4.00
2022-12-06T13:12:19.934Z,4.00
2022-12-06T13:14:53.472Z,4.00
2022-12-06T13:17:24.088Z,4.00
2022-12-06T13:19:54.347Z,4.00
2022-12-06T13:22:25.911Z,4.00
2022-12-06T13:25:00.449Z,4.00
2022-12-06T13:27:30.819Z,4.00
2022-12-06T13:30:02.909Z,4.00
2022-12-06T13:32:36.062Z,4.00
2022-12-06T13:35:13.561Z,4.00
2022-12-06T13:37:46.956Z,4.00
2022-12-06T13:40:41.103Z,4.00
2022-12-06T13:43:59.111Z,4.00
2022-12-06T13:46:32.322Z,4.10
2022-12-06T13:49:02.531Z,4.10
2022-12-06T13:51:49.333Z,4.10
2022-12-06T13:54:41.048Z,4.10
2022-12-06T13:57:23.083Z,4.10
2022-12-06T13:59:50.809Z,4.20
2022-12-06T14:02:51.724Z,4.10
2022-12-06T14:08:40.359Z,4.20
2022-12-06T14:11:19.389Z,4.20
2022-12-06T14:13:49.284Z,4.20
2022-12-06T14:16:23.355Z,4.10
2022-12-06T14:18:51.648Z,4.10
2022-12-06T14:21:24.685Z,4.10
2022-12-06T14:23:54.177Z,4.10
2022-12-06T14:26:25.332Z,4.10
2022-12-06T14:28:55.094Z,4.10
2022-12-06T14:31:26.905Z,4.20
2022-12-06T14:33:56.003Z,4.20
2022-12-06T14:36:28.125Z,4.10
2022-12-06T14:39:01.201Z,4.20
2022-12-06T14:41:52.480Z,4.20
2022-12-06T14:44:22.363Z,4.20
2022-12-06T14:46:50.950Z,4.20
2022-12-06T14:49:39.759Z,4.20
2022-12-06T14:52:27.946Z,4.20
2022-12-06T14:55:17.465Z,4.20
2022-12-06T14:57:47.490Z,4.20
2022-12-06T15:00:26.490Z,4.20
2022-12-06T15:03:23.546Z,4.20
2022-12-06T15:06:09.156Z,4.20
2022-12-06T15:08:38.636Z,4.20
2022-12-06T15:11:44.868Z,4.20
2022-12-06T15:14:14.768Z,4.10
2022-12-06T15:16:43.466Z,4.10
2022-12-06T15:19:13.852Z,4.10
2022-12-06T15:21:41.885Z,4.10
2022-12-06T15:24:18.164Z,4.10
2022-12-06T15:26:47.571Z,4.10
2022-12-06T15:29:15.479Z,4.00
2022-12-06T15:31:44.734Z,4.00
2022-12-06T15:34:22.874Z,4.00
2022-12-06T15:37:08.927Z,4.00
2022-12-06T15:39:36.988Z,3.90
2022-12-06T15:42:18.257Z,3.90
2022-12-06T15:44:49.446Z,3.90
2022-12-06T15:47:18.800Z,3.90
2022-12-06T15:49:46.542Z,3.90
2022-12-06T15:52:17.546Z,3.90
2022-12-06T15:54:45.880Z,3.90
2022-12-06T15:57:14.955Z,3.90
2022-12-06T15:59:42.848Z,3.90
2022-12-06T16:02:15.653Z,3.90
2022-12-06T16:04:44.014Z,3.80
2022-12-06T16:07:13.277Z,3.80
2022-12-06T16:09:41.140Z,3.80
2022-12-06T16:12:09.383Z,3.80
2022-12-06T16:14:38.440Z,3.80
2022-12-06T16:17:06.176Z,3.80
2022-12-06T16:19:47.829Z,3.80
2022-12-06T16:22:15.586Z,3.80
2022-12-06T16:24:42.350Z,3.80
2022-12-06T16:27:10.248Z,3.80
2022-12-06T16:29:39.295Z,3.80
2022-12-06T16:32:07.448Z,3.80
2022-12-06T16:34:35.245Z,3.80
2022-12-06T16:37:04.943Z,3.80
2022-12-06T16:39:34.329Z,3.80
2022-12-06T16:42:02.536Z,3.80
2022-12-06T16:44:30.263Z,3.80
2022-12-06T16:46:59.552Z,3.80
2022-12-06T16:49:46.202Z,3.70
2022-12-06T16:52:14.948Z,3.70
2022-12-06T16:54:43.112Z,3.70
2022-12-06T16:57:11.807Z,3.70
2022-12-06T16:59:40.222Z,3.70
2022-12-06T17:02:24.937Z,3.70
2022-12-06T17:04:52.725Z,3.70
2022-12-06T17:07:20.428Z,3.70
2022-12-06T17:09:48.179Z,3.60
2022-12-06T17:12:15.894Z,3.60
2022-12-06T17:14:44.167Z,3.70
2022-12-06T17:17:15.221Z,3.70
2022-12-06T17:19:43.452Z,3.70
2022-12-06T17:22:12.709Z,3.70
2022-12-06T17:24:40.780Z,3.70
2022-12-06T17:27:09.313Z,3.60
2022-12-06T17:29:37.679Z,3.70
2022-12-06T17:32:05.963Z,3.60
2022-12-06T17:34:35.408Z,3.60
2022-12-06T17:37:03.116Z,3.60
2022-12-06T17:39:30.931Z,3.60
2022-12-06T17:42:16.072Z,3.60
2022-12-06T17:44:43.802Z,3.60
2022-12-06T17:47:12.122Z,3.60
2022-12-06T17:49:41.214Z,3.60
2022-12-06T17:52:08.905Z,3.60
2022-12-06T17:54:36.717Z,3.50
2022-12-06T17:57:04.529Z,3.50
2022-12-06T17:59:34.167Z,3.50
2022-12-06T18:02:18.670Z,3.50
2022-12-06T18:04:48.588Z,3.40
2022-12-06T18:07:17.592Z,3.40
2022-12-06T18:09:45.746Z,3.40
2022-12-06T18:12:15.226Z,3.40
2022-12-06T18:14:42.999Z,3.40
2022-12-06T18:17:11.017Z,3.40
2022-12-06T18:19:40.200Z,3.30
2022-12-06T18:22:09.488Z,3.20
2022-12-06T18:24:37.420Z,3.30
2022-12-06T18:27:06.128Z,3.30
2022-12-06T18:29:34.528Z,3.30
2022-12-06T18:32:02.910Z,3.30
2022-12-06T18:34:30.975Z,3.30
2022-12-06T18:36:58.673Z,3.30
2022-12-06T18:39:27.908Z,3.30
2022-12-06T18:41:56.193Z,3.30
2022-12-06T18:44:24.525Z,3.30
2022-12-06T18:46:52.312Z,3.30
2022-12-06T18:53:44.336Z,3.30
2022-12-06T18:56:16.443Z,3.30
2022-12-06T18:58:44.749Z,3.30
2022-12-06T19:01:13.223Z,3.40
2022-12-06T19:03:41.248Z,3.40
2022-12-06T19:06:11.179Z,3.40
2022-12-06T19:08:40.290Z,3.40
2022-12-06T19:11:17.458Z,3.40
2022-12-06T19:13:51.566Z,3.40
2022-12-06T19:16:21.210Z,3.40
2022-12-06T19:18:49.497Z,3.40
2022-12-06T19:21:17.825Z,3.40
2022-12-06T19:23:46.010Z,3.40
2022-12-06T19:26:14.481Z,3.40
2022-12-06T19:28:42.682Z,3.40
2022-12-06T19:31:13.562Z,3.40
2022-12-06T19:33:43.228Z,3.40
2022-12-06T19:36:13.980Z,3.40
2022-12-06T19:38:42.031Z,3.40
2022-12-06T19:41:13.578Z,3.40
2022-12-06T19:44:13.535Z,3.40
2022-12-06T19:46:45.118Z,3.50
2022-12-06T19:49:14.684Z,3.50
2022-12-06T19:51:44.325Z,3.50
2022-12-06T19:54:14.934Z,3.50
2022-12-06T19:56:42.787Z,3.50
2022-12-06T19:59:12.333Z,3.50
2022-12-06T20:01:41.928Z,3.50
2022-12-06T20:04:15.103Z,3.50
2022-12-06T20:06:42.933Z,3.50
2022-12-06T20:09:11.217Z,3.50
2022-12-06T20:11:58.131Z,3.50
2022-12-06T20:14:26.196Z,3.50
2022-12-06T20:16:54.346Z,3.50
2022-12-06T20:19:24.197Z,3.50
2022-12-06T20:21:51.964Z,3.50
2022-12-06T20:24:22.047Z,3.50
2022-12-06T20:26:52.712Z,3.50
2022-12-06T20:29:21.455Z,3.50
2022-12-06T20:31:50.120Z,3.50
2022-12-06T20:34:18.520Z,3.50
2022-12-06T20:36:47.918Z,3.50
2022-12-06T20:39:20.875Z,3.50
2022-12-06T20:41:49.243Z,3.50
2022-12-06T20:44:17.478Z,3.50
2022-12-06T20:46:46.043Z,3.50
2022-12-06T20:49:14.013Z,3.50
2022-12-06T20:51:42.458Z,3.50
2022-12-06T20:54:12.921Z,3.60
2022-12-06T20:56:42.387Z,3.50
2022-12-06T20:59:10.860Z,3.50
2022-12-06T21:01:41.623Z,3.50
2022-12-06T21:04:12.576Z,3.50
2022-12-06T21:06:40.343Z,3.60
2022-12-06T21:09:08.137Z,3.60
2022-12-06T21:11:37.500Z,3.60
2022-12-06T21:14:06.049Z,3.60
2022-12-06T21:16:35.389Z,3.60
2022-12-06T21:19:04.766Z,3.60
2022-12-06T21:21:34.914Z,3.60
2022-12-06T21:24:03.912Z,3.60
2022-12-06T21:26:32.705Z,3.60
2022-12-06T21:29:02.002Z,3.60
2022-12-06T21:31:31.851Z,3.60
2022-12-06T21:33:59.868Z,3.60
2022-12-06T21:36:27.700Z,3.60
2022-12-06T21:38:55.644Z,3.60
2022-12-06T21:41:23.963Z,3.60
2022-12-06T21:43:51.705Z,3.60
2022-12-06T21:46:22.758Z,3.60
2022-12-06T21:48:51.134Z,3.70
2022-12-06T21:51:19.252Z,3.70
2022-12-06T21:53:47.119Z,3.70
2022-12-06T21:56:17.760Z,3.60
2022-12-06T21:58:45.844Z,3.70
2022-12-06T22:01:16.635Z,3.70
2022-12-06T22:03:48.353Z,3.60
2022-12-06T22:06:16.160Z,3.70
2022-12-06T22:08:45.034Z,3.70
2022-12-06T22:11:14.512Z,3.70
2022-12-06T22:13:42.388Z,3.70
2022-12-06T22:16:12.842Z,3.70
2022-12-06T22:18:45.505Z,3.70
2022-12-06T22:21:16.734Z,3.70
2022-12-06T22:23:44.960Z,3.70
2022-12-06T22:26:16.278Z,3.70
2022-12-06T22:28:44.176Z,3.70
2022-12-06T22:31:14.489Z,3.70
2022-12-06T22:33:42.849Z,3.70
2022-12-06T22:36:11.584Z,3.70
2022-12-06T22:38:40.985Z,3.70
2022-12-06T22:41:09.755Z,3.70
2022-12-06T22:43:37.936Z,3.70
2022-12-06T22:46:06.853Z,3.70
2022-12-06T22:48:34.667Z,3.70
2022-12-06T22:51:10.657Z,3.70
2022-12-06T22:53:40.341Z,3.70
2022-12-06T22:56:09.033Z,3.70
2022-12-06T22:58:37.278Z,3.70
2022-12-06T23:01:16.526Z,3.70
2022-12-06T23:03:45.368Z,3.80
2022-12-06T23:06:14.250Z,3.80
2022-12-06T23:08:44.472Z,3.80
2022-12-06T23:11:14.195Z,3.80
2022-12-06T23:13:42.924Z,3.80
2022-12-06T23:16:14.454Z,3.80
2022-12-06T23:18:42.432Z,3.80
2022-12-06T23:21:14.564Z,3.80
2022-12-06T23:23:45.753Z,3.80
2022-12-06T23:26:15.618Z,3.80
2022-12-06T23:28:45.219Z,3.80
2022-12-06T23:31:15.175Z,3.80
2022-12-06T23:33:44.425Z,3.80
2022-12-06T23:36:13.912Z,3.80
2022-12-06T23:38:43.369Z,3.80
2022-12-06T23:41:13.464Z,3.80
2022-12-06T23:43:41.944Z,3.80
2022-12-06T23:46:11.660Z,3.90
2022-12-06T23:48:40.237Z,3.90
2022-12-06T23:51:09.561Z,3.90
2022-12-06T23:53:37.955Z,3.90
2022-12-06T23:56:09.540Z,3.90
2022-12-06T23:58:37.735Z,3.90
